sensor_id;sensor_type;location;lat;lon;timestamp;pressure;altitude;pressure_sealevel;temperature
74043;BMP280;62384;53.600;10.040;2022-12-18T00:02:06;-9172.13;;;-3.01
74043;BMP280;62384;53.600;10.040;2022-12-18T00:04:31;-9171.72;;;-3.02
74043;BMP280;62384;53.600;10.040;2022-12-18T00:06:57;-9171.59;;;-3.03
74043;BMP280;62384;53.600;10.040;2022-12-18T00:09:25;-9170.16;;;-3.08
74043;BMP280;62384;53.600;10.040;2022-12-18T00:11:51;-9167.41;;;-3.19
74043;BMP280;62384;53.600;10.040;2022-12-18T00:14:16;-9166.63;;;-3.22
74043;BMP280;62384;53.600;10.040;2022-12-18T00:16:46;-9165.69;;;-3.25
74043;BMP280;62384;53.600;10.040;2022-12-18T00:19:12;-9164.00;;;-3.32
74043;BMP280;62384;53.600;10.040;2022-12-18T00:21:38;-9164.50;;;-3.30
74043;BMP280;62384;53.600;10.040;2022-12-18T00:24:06;-9165.94;;;-3.24
74043;BMP280;62384;53.600;10.040;2022-12-18T00:26:33;-9165.03;;;-3.28
74043;BMP280;62384;53.600;10.040;2022-12-18T00:29:10;-9169.22;;;-3.12
74043;BMP280;62384;53.600;10.040;2022-12-18T00:31:37;-9167.66;;;-3.18
74043;BMP280;62384;53.600;10.040;2022-12-18T00:34:03;-9163.22;;;-3.35
74043;BMP280;62384;53.600;10.040;2022-12-18T00:36:33;-9163.72;;;-3.33
74043;BMP280;62384;53.600;10.040;2022-12-18T00:39:00;-9162.28;;;-3.38
74043;BMP280;62384;53.600;10.040;2022-12-18T00:41:26;-9161.63;;;-3.41
74043;BMP280;62384;53.600;10.040;2022-12-18T00:44:13;-9160.44;;;-3.45
74043;BMP280;62384;53.600;10.040;2022-12-18T00:46:39;-9161.09;;;-3.43
74043;BMP280;62384;53.600;10.040;2022-12-18T00:49:07;-9164.25;;;-3.31
74043;BMP280;62384;53.600;10.040;2022-12-18T00:51:33;-9160.72;;;-3.44
74043;BMP280;62384;53.600;10.040;2022-12-18T00:53:58;-9159.13;;;-3.51
74043;BMP280;62384;53.600;10.040;2022-12-18T00:56:24;-9159.91;;;-3.47
74043;BMP280;62384;53.600;10.040;2022-12-18T00:58:49;-9151.78;;;-3.79
74043;BMP280;62384;53.600;10.040;2022-12-18T01:01:15;-9158.63;;;-3.53
74043;BMP280;62384;53.600;10.040;2022-12-18T01:03:41;-9162.69;;;-3.37
74043;BMP280;62384;53.600;10.040;2022-12-18T01:06:08;-9158.88;;;-3.52
74043;BMP280;62384;53.600;10.040;2022-12-18T01:08:34;-9160.06;;;-3.47
74043;BMP280;62384;53.600;10.040;2022-12-18T01:11:00;-9159.91;;;-3.47
74043;BMP280;62384;53.600;10.040;2022-12-18T01:13:26;-9157.03;;;-3.59
74043;BMP280;62384;53.600;10.040;2022-12-18T01:15:52;-9156.25;;;-3.62
74043;BMP280;62384;53.600;10.040;2022-12-18T01:18:17;-9153.75;;;-3.71
74043;BMP280;62384;53.600;10.040;2022-12-18T01:20:42;-9144.06;;;-4.09
74043;BMP280;62384;53.600;10.040;2022-12-18T01:23:11;-9155.59;;;-3.64
74043;BMP280;62384;53.600;10.040;2022-12-18T01:25:36;-9159.78;;;-3.48
74043;BMP280;62384;53.600;10.040;2022-12-18T01:28:02;-9159.66;;;-3.48
74043;BMP280;62384;53.600;10.040;2022-12-18T01:30:27;-9154.81;;;-3.67
74043;BMP280;62384;53.600;10.040;2022-12-18T01:32:53;-9152.06;;;-3.78
74043;BMP280;62384;53.600;10.040;2022-12-18T01:35:18;-9153.75;;;-3.71
74043;BMP280;62384;53.600;10.040;2022-12-18T01:37:44;-9153.25;;;-3.73
74043;BMP280;62384;53.600;10.040;2022-12-18T01:40:09;-9152.06;;;-3.78
74043;BMP280;62384;53.600;10.040;2022-12-18T01:42:34;-9154.94;;;-3.67
74043;BMP280;62384;53.600;10.040;2022-12-18T01:45:22;-9156.91;;;-3.59
74043;BMP280;62384;53.600;10.040;2022-12-18T01:47:54;-9157.19;;;-3.58
74043;BMP280;62384;53.600;10.040;2022-12-18T01:50:39;-9158.63;;;-3.53
74043;BMP280;62384;53.600;10.040;2022-12-18T01:53:17;-9160.31;;;-3.46
74043;BMP280;62384;53.600;10.040;2022-12-18T01:55:50;-9157.81;;;-3.56
74043;BMP280;62384;53.600;10.040;2022-12-18T01:58:17;-9152.84;;;-3.75
74043;BMP280;62384;53.600;10.040;2022-12-18T02:00:43;-9156.13;;;-3.62
74043;BMP280;62384;53.600;10.040;2022-12-18T02:03:09;-9156.38;;;-3.61
74043;BMP280;62384;53.600;10.040;2022-12-18T02:05:47;-9158.09;;;-3.55
74043;BMP280;62384;53.600;10.040;2022-12-18T02:08:19;-9152.72;;;-3.75
74043;BMP280;62384;53.600;10.040;2022-12-18T02:17:01;-9152.97;;;-3.74
74043;BMP280;62384;53.600;10.040;2022-12-18T02:27:47;-9151.16;;;-3.81
74043;BMP280;62384;53.600;10.040;2022-12-18T02:30:15;-9150.63;;;-3.83
74043;BMP280;62384;53.600;10.040;2022-12-18T02:32:45;-9151.94;;;-3.78
74043;BMP280;62384;53.600;10.040;2022-12-18T02:35:16;-9149.97;;;-3.86
74043;BMP280;62384;53.600;10.040;2022-12-18T02:37:45;-9150.88;;;-3.82
74043;BMP280;62384;53.600;10.040;2022-12-18T02:40:11;-9150.47;;;-3.84
74043;BMP280;62384;53.600;10.040;2022-12-18T02:42:38;-9147.47;;;-3.95
74043;BMP280;62384;53.600;10.040;2022-12-18T02:45:04;-9147.47;;;-3.95
74043;BMP280;62384;53.600;10.040;2022-12-18T02:47:32;-9148.78;;;-3.90
74043;BMP280;62384;53.600;10.040;2022-12-18T02:50:44;-9144.84;;;-4.06
74043;BMP280;62384;53.600;10.040;2022-12-18T02:55:33;-9145.91;;;-4.02
74043;BMP280;62384;53.600;10.040;2022-12-18T02:58:04;-9144.44;;;-4.07
74043;BMP280;62384;53.600;10.040;2022-12-18T03:00:37;-9146.16;;;-4.01
74043;BMP280;62384;53.600;10.040;2022-12-18T03:03:14;-9146.03;;;-4.01
74043;BMP280;62384;53.600;10.040;2022-12-18T03:05:46;-9143.41;;;-4.11
74043;BMP280;62384;53.600;10.040;2022-12-18T03:08:23;-9141.97;;;-4.17
74043;BMP280;62384;53.600;10.040;2022-12-18T03:11:02;-9144.06;;;-4.09
74043;BMP280;62384;53.600;10.040;2022-12-18T03:13:54;-9144.72;;;-4.06
74043;BMP280;62384;53.600;10.040;2022-12-18T03:16:23;-9144.97;;;-4.05
74043;BMP280;62384;53.600;10.040;2022-12-18T03:18:53;-9145.63;;;-4.03
74043;BMP280;62384;53.600;10.040;2022-12-18T03:21:32;-9143.53;;;-4.11
74043;BMP280;62384;53.600;10.040;2022-12-18T03:23:58;-9143.81;;;-4.10
74043;BMP280;62384;53.600;10.040;2022-12-18T03:26:25;-9145.25;;;-4.04
74043;BMP280;62384;53.600;10.040;2022-12-18T03:28:59;-9143.41;;;-4.11
74043;BMP280;62384;53.600;10.040;2022-12-18T03:31:27;-9142.75;;;-4.14
74043;BMP280;62384;53.600;10.040;2022-12-18T03:33:55;-9143.28;;;-4.12
74043;BMP280;62384;53.600;10.040;2022-12-18T03:36:23;-9131.88;;;-4.56
74043;BMP280;62384;53.600;10.040;2022-12-18T03:38:48;-9137.91;;;-4.32
74043;BMP280;62384;53.600;10.040;2022-12-18T03:41:33;-9144.97;;;-4.05
74043;BMP280;62384;53.600;10.040;2022-12-18T03:44:28;-9143.28;;;-4.12
74043;BMP280;62384;53.600;10.040;2022-12-18T03:49:59;-9140.91;;;-4.21
74043;BMP280;62384;53.600;10.040;2022-12-18T03:52:36;-9138.94;;;-4.28
74043;BMP280;62384;53.600;10.040;2022-12-18T03:55:04;-9144.31;;;-4.08
74043;BMP280;62384;53.600;10.040;2022-12-18T03:57:31;-9133.56;;;-4.49
74043;BMP280;62384;53.600;10.040;2022-12-18T04:00:02;-9140.25;;;-4.23
74043;BMP280;62384;53.600;10.040;2022-12-18T04:02:28;-9138.03;;;-4.32
74043;BMP280;62384;53.600;10.040;2022-12-18T04:04:58;-9137.13;;;-4.35
74043;BMP280;62384;53.600;10.040;2022-12-18T04:07:24;-9136.31;;;-4.38
74043;BMP280;62384;53.600;10.040;2022-12-18T04:09:53;-9137.63;;;-4.33
74043;BMP280;62384;53.600;10.040;2022-12-18T04:12:20;-9137.25;;;-4.35
74043;BMP280;62384;53.600;10.040;2022-12-18T04:14:45;-9138.56;;;-4.30
74043;BMP280;62384;53.600;10.040;2022-12-18T04:17:11;-9140.00;;;-4.24
74043;BMP280;62384;53.600;10.040;2022-12-18T04:19:36;-9137.50;;;-4.34
74043;BMP280;62384;53.600;10.040;2022-12-18T04:22:01;-9134.88;;;-4.44
74043;BMP280;62384;53.600;10.040;2022-12-18T04:24:29;-9137.25;;;-4.35
74043;BMP280;62384;53.600;10.040;2022-12-18T04:26:55;-9133.72;;;-4.49
74043;BMP280;62384;53.600;10.040;2022-12-18T04:29:20;-9133.31;;;-4.50
74043;BMP280;62384;53.600;10.040;2022-12-18T04:31:45;-9135.66;;;-4.41
74043;BMP280;62384;53.600;10.040;2022-12-18T04:34:10;-9133.56;;;-4.49
74043;BMP280;62384;53.600;10.040;2022-12-18T04:36:36;-9133.44;;;-4.50
74043;BMP280;62384;53.600;10.040;2022-12-18T04:39:02;-9123.75;;;-4.87
74043;BMP280;62384;53.600;10.040;2022-12-18T04:41:27;-9132.53;;;-4.53
74043;BMP280;62384;53.600;10.040;2022-12-18T04:43:52;-9131.22;;;-4.58
74043;BMP280;62384;53.600;10.040;2022-12-18T04:46:18;-9132.94;;;-4.52
74043;BMP280;62384;53.600;10.040;2022-12-18T04:48:45;-9134.75;;;-4.44
74043;BMP280;62384;53.600;10.040;2022-12-18T04:51:10;-9132.41;;;-4.54
74043;BMP280;62384;53.600;10.040;2022-12-18T04:53:36;-9129.91;;;-4.63
74043;BMP280;62384;53.600;10.040;2022-12-18T04:56:07;-9129.66;;;-4.64
74043;BMP280;62384;53.600;10.040;2022-12-18T04:58:33;-9129.00;;;-4.67
74043;BMP280;62384;53.600;10.040;2022-12-18T05:00:58;-9128.19;;;-4.70
74043;BMP280;62384;53.600;10.040;2022-12-18T05:03:24;-9128.06;;;-4.70
74043;BMP280;62384;53.600;10.040;2022-12-18T05:05:50;-9128.06;;;-4.70
74043;BMP280;62384;53.600;10.040;2022-12-18T05:08:16;-9128.34;;;-4.69
74043;BMP280;62384;53.600;10.040;2022-12-18T05:10:41;-9127.16;;;-4.74
74043;BMP280;62384;53.600;10.040;2022-12-18T05:13:06;-9126.50;;;-4.76
74043;BMP280;62384;53.600;10.040;2022-12-18T05:15:32;-9126.63;;;-4.76
74043;BMP280;62384;53.600;10.040;2022-12-18T05:17:58;-9129.38;;;-4.65
74043;BMP280;62384;53.600;10.040;2022-12-18T05:20:25;-9128.59;;;-4.68
74043;BMP280;62384;53.600;10.040;2022-12-18T05:22:52;-9129.91;;;-4.63
74043;BMP280;62384;53.600;10.040;2022-12-18T05:25:17;-9126.50;;;-4.76
74043;BMP280;62384;53.600;10.040;2022-12-18T05:27:46;-9128.06;;;-4.70
74043;BMP280;62384;53.600;10.040;2022-12-18T05:30:12;-9126.50;;;-4.76
74043;BMP280;62384;53.600;10.040;2022-12-18T05:32:38;-9127.03;;;-4.74
74043;BMP280;62384;53.600;10.040;2022-12-18T05:35:06;-9126.50;;;-4.76
74043;BMP280;62384;53.600;10.040;2022-12-18T05:37:31;-9124.41;;;-4.84
74043;BMP280;62384;53.600;10.040;2022-12-18T05:39:57;-9124.28;;;-4.85
74043;BMP280;62384;53.600;10.040;2022-12-18T05:42:22;-9114.84;;;-5.21
74043;BMP280;62384;53.600;10.040;2022-12-18T05:44:50;-9128.06;;;-4.70
74043;BMP280;62384;53.600;10.040;2022-12-18T05:47:15;-9125.56;;;-4.80
74043;BMP280;62384;53.600;10.040;2022-12-18T05:49:41;-9125.44;;;-4.80
74043;BMP280;62384;53.600;10.040;2022-12-18T05:52:06;-9123.75;;;-4.87
74043;BMP280;62384;53.600;10.040;2022-12-18T05:54:32;-9125.56;;;-4.80
74043;BMP280;62384;53.600;10.040;2022-12-18T05:56:57;-9122.69;;;-4.91
74043;BMP280;62384;53.600;10.040;2022-12-18T05:59:23;-9116.00;;;-5.17
74043;BMP280;62384;53.600;10.040;2022-12-18T06:01:48;-9125.31;;;-4.81
74043;BMP280;62384;53.600;10.040;2022-12-18T06:04:13;-9123.75;;;-4.87
74043;BMP280;62384;53.600;10.040;2022-12-18T06:06:39;-9125.84;;;-4.79
74043;BMP280;62384;53.600;10.040;2022-12-18T06:09:04;-9124.00;;;-4.86
74043;BMP280;62384;53.600;10.040;2022-12-18T06:11:35;-9124.41;;;-4.84
74043;BMP280;62384;53.600;10.040;2022-12-18T06:14:03;-9123.75;;;-4.87
74043;BMP280;62384;53.600;10.040;2022-12-18T06:16:29;-9120.34;;;-5.00
74043;BMP280;62384;53.600;10.040;2022-12-18T06:18:59;-9121.50;;;-4.96
74043;BMP280;62384;53.600;10.040;2022-12-18T06:21:25;-9119.69;;;-5.03
74043;BMP280;62384;53.600;10.040;2022-12-18T06:23:50;-9118.25;;;-5.08
74043;BMP280;62384;53.600;10.040;2022-12-18T06:26:15;-9122.03;;;-4.94
74043;BMP280;62384;53.600;10.040;2022-12-18T06:28:41;-9122.03;;;-4.94
74043;BMP280;62384;53.600;10.040;2022-12-18T06:31:07;-9119.94;;;-5.02
74043;BMP280;62384;53.600;10.040;2022-12-18T06:33:33;-9121.38;;;-4.96
74043;BMP280;62384;53.600;10.040;2022-12-18T06:36:04;-9119.81;;;-5.02
74043;BMP280;62384;53.600;10.040;2022-12-18T06:38:31;-9119.41;;;-5.04
74043;BMP280;62384;53.600;10.040;2022-12-18T06:40:56;-9117.59;;;-5.11
74043;BMP280;62384;53.600;10.040;2022-12-18T06:43:21;-9113.66;;;-5.26
74043;BMP280;62384;53.600;10.040;2022-12-18T06:45:50;-9117.97;;;-5.09
74043;BMP280;62384;53.600;10.040;2022-12-18T06:48:19;-9116.94;;;-5.13
74043;BMP280;62384;53.600;10.040;2022-12-18T06:50:45;-9122.03;;;-4.94
74043;BMP280;62384;53.600;10.040;2022-12-18T06:53:10;-9118.91;;;-5.06
74043;BMP280;62384;53.600;10.040;2022-12-18T06:55:35;-9110.13;;;-5.40
74043;BMP280;62384;53.600;10.040;2022-12-18T06:58:01;-9116.28;;;-5.16
74043;BMP280;62384;53.600;10.040;2022-12-18T07:00:26;-9112.09;;;-5.32
74043;BMP280;62384;53.600;10.040;2022-12-18T07:02:51;-9120.06;;;-5.01
74043;BMP280;62384;53.600;10.040;2022-12-18T07:05:17;-9120.72;;;-4.99
74043;BMP280;62384;53.600;10.040;2022-12-18T07:07:42;-9119.41;;;-5.04
74043;BMP280;62384;53.600;10.040;2022-12-18T07:10:33;-9119.94;;;-5.02
74043;BMP280;62384;53.600;10.040;2022-12-18T07:12:59;-9118.75;;;-5.06
74043;BMP280;62384;53.600;10.040;2022-12-18T07:15:24;-9116.53;;;-5.15
74043;BMP280;62384;53.600;10.040;2022-12-18T07:17:49;-9115.75;;;-5.18
74043;BMP280;62384;53.600;10.040;2022-12-18T07:20:15;-9114.56;;;-5.22
74043;BMP280;62384;53.600;10.040;2022-12-18T07:22:40;-9117.47;;;-5.11
74043;BMP280;62384;53.600;10.040;2022-12-18T07:25:06;-9119.94;;;-5.02
74043;BMP280;62384;53.600;10.040;2022-12-18T07:27:31;-9117.72;;;-5.10
74043;BMP280;62384;53.600;10.040;2022-12-18T07:29:56;-9119.41;;;-5.04
74043;BMP280;62384;53.600;10.040;2022-12-18T07:32:22;-9119.28;;;-5.04
74043;BMP280;62384;53.600;10.040;2022-12-18T07:34:47;-9117.06;;;-5.13
74043;BMP280;62384;53.600;10.040;2022-12-18T07:37:12;-9117.06;;;-5.13
74043;BMP280;62384;53.600;10.040;2022-12-18T07:39:38;-9118.25;;;-5.08
74043;BMP280;62384;53.600;10.040;2022-12-18T07:42:03;-9116.94;;;-5.13
74043;BMP280;62384;53.600;10.040;2022-12-18T07:44:47;-9115.88;;;-5.17
74043;BMP280;62384;53.600;10.040;2022-12-18T07:47:12;-9117.84;;;-5.10
74043;BMP280;62384;53.600;10.040;2022-12-18T07:49:37;-9119.69;;;-5.03
74043;BMP280;62384;53.600;10.040;2022-12-18T07:52:03;-9120.06;;;-5.01
74043;BMP280;62384;53.600;10.040;2022-12-18T07:54:28;-9118.09;;;-5.09
74043;BMP280;62384;53.600;10.040;2022-12-18T07:56:54;-9120.06;;;-5.01
74043;BMP280;62384;53.600;10.040;2022-12-18T07:59:28;-9120.06;;;-5.01
74043;BMP280;62384;53.600;10.040;2022-12-18T08:01:53;-9122.69;;;-4.91
74043;BMP280;62384;53.600;10.040;2022-12-18T08:04:19;-9122.81;;;-4.91
74043;BMP280;62384;53.600;10.040;2022-12-18T08:06:44;-9122.81;;;-4.91
74043;BMP280;62384;53.600;10.040;2022-12-18T08:09:10;-9121.66;;;-4.95
74043;BMP280;62384;53.600;10.040;2022-12-18T08:11:35;-9120.47;;;-5.00
74043;BMP280;62384;53.600;10.040;2022-12-18T08:14:00;-9120.72;;;-4.99
74043;BMP280;62384;53.600;10.040;2022-12-18T08:16:26;-9115.88;;;-5.17
74043;BMP280;62384;53.600;10.040;2022-12-18T08:18:52;-9121.78;;;-4.95
74043;BMP280;62384;53.600;10.040;2022-12-18T08:21:21;-9124.66;;;-4.83
74043;BMP280;62384;53.600;10.040;2022-12-18T08:23:48;-9125.31;;;-4.81
74043;BMP280;62384;53.600;10.040;2022-12-18T08:26:13;-9125.44;;;-4.80
74043;BMP280;62384;53.600;10.040;2022-12-18T08:28:40;-9131.22;;;-4.58
74043;BMP280;62384;53.600;10.040;2022-12-18T08:31:05;-9127.81;;;-4.71
74043;BMP280;62384;53.600;10.040;2022-12-18T08:33:31;-9119.94;;;-5.02
74043;BMP280;62384;53.600;10.040;2022-12-18T08:35:58;-9129.00;;;-4.67
74043;BMP280;62384;53.600;10.040;2022-12-18T08:38:23;-9129.50;;;-4.65
74043;BMP280;62384;53.600;10.040;2022-12-18T08:40:49;-9134.63;;;-4.45
74043;BMP280;62384;53.600;10.040;2022-12-18T08:43:14;-9133.84;;;-4.48
74043;BMP280;62384;53.600;10.040;2022-12-18T08:45:58;-9136.19;;;-4.39
74043;BMP280;62384;53.600;10.040;2022-12-18T08:48:23;-9130.94;;;-4.59
74043;BMP280;62384;53.600;10.040;2022-12-18T08:50:59;-9131.47;;;-4.57
74043;BMP280;62384;53.600;10.040;2022-12-18T08:53:24;-9131.75;;;-4.56
74043;BMP280;62384;53.600;10.040;2022-12-18T08:55:49;-9136.06;;;-4.39
74043;BMP280;62384;53.600;10.040;2022-12-18T08:58:15;-9137.91;;;-4.32
74043;BMP280;62384;53.600;10.040;2022-12-18T09:00:40;-9138.28;;;-4.31
74043;BMP280;62384;53.600;10.040;2022-12-18T09:03:11;-9140.53;;;-4.22
74043;BMP280;62384;53.600;10.040;2022-12-18T09:05:36;-9142.50;;;-4.15
74043;BMP280;62384;53.600;10.040;2022-12-18T09:08:05;-9140.78;;;-4.21
74043;BMP280;62384;53.600;10.040;2022-12-18T09:10:31;-9143.00;;;-4.13
74043;BMP280;62384;53.600;10.040;2022-12-18T09:12:56;-9138.56;;;-4.30
74043;BMP280;62384;53.600;10.040;2022-12-18T09:15:22;-9143.81;;;-4.10
74043;BMP280;62384;53.600;10.040;2022-12-18T09:17:49;-9141.44;;;-4.19
74043;BMP280;62384;53.600;10.040;2022-12-18T09:20:15;-9144.84;;;-4.06
74043;BMP280;62384;53.600;10.040;2022-12-18T09:22:41;-9141.84;;;-4.17
74043;BMP280;62384;53.600;10.040;2022-12-18T09:25:06;-9144.97;;;-4.05
74043;BMP280;62384;53.600;10.040;2022-12-18T09:27:34;-9145.25;;;-4.04
74043;BMP280;62384;53.600;10.040;2022-12-18T09:30:00;-9150.22;;;-3.85
74043;BMP280;62384;53.600;10.040;2022-12-18T09:32:26;-9151.94;;;-3.78
74043;BMP280;62384;53.600;10.040;2022-12-18T09:34:51;-9155.22;;;-3.66
74043;BMP280;62384;53.600;10.040;2022-12-18T09:37:16;-9153.63;;;-3.72
74043;BMP280;62384;53.600;10.040;2022-12-18T09:39:42;-9156.66;;;-3.60
74043;BMP280;62384;53.600;10.040;2022-12-18T09:42:26;-9155.88;;;-3.63
74043;BMP280;62384;53.600;10.040;2022-12-18T09:44:53;-9160.59;;;-3.45
74043;BMP280;62384;53.600;10.040;2022-12-18T09:47:33;-9160.59;;;-3.45
74043;BMP280;62384;53.600;10.040;2022-12-18T09:50:04;-9161.63;;;-3.41
74043;BMP280;62384;53.600;10.040;2022-12-18T09:52:36;-9168.97;;;-3.13
74043;BMP280;62384;53.600;10.040;2022-12-18T09:55:28;-9169.91;;;-3.09
74043;BMP280;62384;53.600;10.040;2022-12-18T09:58:00;-9169.63;;;-3.10
74043;BMP280;62384;53.600;10.040;2022-12-18T10:00:27;-9174.47;;;-2.91
74043;BMP280;62384;53.600;10.040;2022-12-18T10:02:59;-9178.28;;;-2.77
74043;BMP280;62384;53.600;10.040;2022-12-18T10:08:11;-9184.31;;;-2.54
74043;BMP280;62384;53.600;10.040;2022-12-18T10:10:52;-9186.69;;;-2.44
74043;BMP280;62384;53.600;10.040;2022-12-18T10:13:28;-9183.28;;;-2.58
74043;BMP280;62384;53.600;10.040;2022-12-18T10:16:09;-9184.31;;;-2.54
74043;BMP280;62384;53.600;10.040;2022-12-18T10:21:13;-9187.22;;;-2.42
74043;BMP280;62384;53.600;10.040;2022-12-18T10:26:44;-9189.97;;;-2.32
74043;BMP280;62384;53.600;10.040;2022-12-18T10:29:14;-9191.78;;;-2.25
74043;BMP280;62384;53.600;10.040;2022-12-18T10:31:41;-9192.97;;;-2.20
74043;BMP280;62384;53.600;10.040;2022-12-18T10:34:15;-9195.47;;;-2.11
74043;BMP280;62384;53.600;10.040;2022-12-18T10:36:41;-9195.22;;;-2.12
74043;BMP280;62384;53.600;10.040;2022-12-18T10:41:40;-9197.56;;;-2.03
74043;BMP280;62384;53.600;10.040;2022-12-18T10:44:26;-9198.63;;;-1.98
74043;BMP280;62384;53.600;10.040;2022-12-18T10:46:55;-9200.97;;;-1.89
74043;BMP280;62384;53.600;10.040;2022-12-18T10:49:31;-9209.25;;;-1.58
74043;BMP280;62384;53.600;10.040;2022-12-18T10:52:18;-9208.06;;;-1.62
74043;BMP280;62384;53.600;10.040;2022-12-18T10:54:51;-9213.06;;;-1.43
74043;BMP280;62384;53.600;10.040;2022-12-18T10:57:29;-9211.34;;;-1.49
74043;BMP280;62384;53.600;10.040;2022-12-18T10:59:57;-9216.06;;;-1.31
74043;BMP280;62384;53.600;10.040;2022-12-18T11:02:34;-9213.56;;;-1.41
74043;BMP280;62384;53.600;10.040;2022-12-18T11:05:00;-9217.50;;;-1.26
74043;BMP280;62384;53.600;10.040;2022-12-18T11:07:46;-9224.06;;;-1.00
74043;BMP280;62384;53.600;10.040;2022-12-18T11:10:17;-9222.38;;;-1.07
74043;BMP280;62384;53.600;10.040;2022-12-18T11:12:46;-9222.25;;;-1.08
74043;BMP280;62384;53.600;10.040;2022-12-18T11:15:30;-9223.28;;;-1.04
74043;BMP280;62384;53.600;10.040;2022-12-18T11:17:55;-9237.19;;;-0.50
74043;BMP280;62384;53.600;10.040;2022-12-18T11:22:56;-9254.53;;;0.17
74043;BMP280;62384;53.600;10.040;2022-12-18T11:25:23;-9263.44;;;0.51
74043;BMP280;62384;53.600;10.040;2022-12-18T11:27:55;-9264.09;;;0.53
74043;BMP280;62384;53.600;10.040;2022-12-18T11:30:22;-9266.34;;;0.62
74043;BMP280;62384;53.600;10.040;2022-12-18T11:33:13;-9266.34;;;0.62
74043;BMP280;62384;53.600;10.040;2022-12-18T11:38:40;-9252.03;;;0.07
74043;BMP280;62384;53.600;10.040;2022-12-18T11:41:27;-9243.09;;;-0.27
74043;BMP280;62384;53.600;10.040;2022-12-18T11:44:16;-9236.66;;;-0.52
74043;BMP280;62384;53.600;10.040;2022-12-18T11:47:00;-9247.03;;;-0.12
74043;BMP280;62384;53.600;10.040;2022-12-18T11:49:34;-9254.66;;;0.17
74043;BMP280;62384;53.600;10.040;2022-12-18T11:54:38;-9271.84;;;0.83
74043;BMP280;62384;53.600;10.040;2022-12-18T11:57:36;-9267.78;;;0.68
74043;BMP280;62384;53.600;10.040;2022-12-18T12:00:13;-9274.09;;;0.92
74043;BMP280;62384;53.600;10.040;2022-12-18T12:03:03;-9271.47;;;0.82
74043;BMP280;62384;53.600;10.040;2022-12-18T12:08:24;-9268.72;;;0.71
74043;BMP280;62384;53.600;10.040;2022-12-18T12:16:24;-9254.78;;;0.18
74043;BMP280;62384;53.600;10.040;2022-12-18T12:19:35;-9255.84;;;0.22
74043;BMP280;62384;53.600;10.040;2022-12-18T12:24:44;-9251.50;;;0.05
74043;BMP280;62384;53.600;10.040;2022-12-18T12:30:04;-9246.78;;;-0.13
74043;BMP280;62384;53.600;10.040;2022-12-18T12:38:13;-9252.03;;;0.07
74043;BMP280;62384;53.600;10.040;2022-12-18T12:40:48;-9243.25;;;-0.27
74043;BMP280;62384;53.600;10.040;2022-12-18T12:43:27;-9242.72;;;-0.29
74043;BMP280;62384;53.600;10.040;2022-12-18T12:46:00;-9245.59;;;-0.18
74043;BMP280;62384;53.600;10.040;2022-12-18T12:48:50;-9254.00;;;0.15
74043;BMP280;62384;53.600;10.040;2022-12-18T12:51:25;-9260.69;;;0.40
74043;BMP280;62384;53.600;10.040;2022-12-18T12:53:51;-9260.81;;;0.41
74043;BMP280;62384;53.600;10.040;2022-12-18T12:56:19;-9267.25;;;0.66
74043;BMP280;62384;53.600;10.040;2022-12-18T13:13:07;-9255.19;;;0.19
74043;BMP280;62384;53.600;10.040;2022-12-18T13:16:06;-9252.94;;;0.11
74043;BMP280;62384;53.600;10.040;2022-12-18T13:18:32;-9252.56;;;0.09
74043;BMP280;62384;53.600;10.040;2022-12-18T13:25:47;-9246.66;;;-0.14
74043;BMP280;62384;53.600;10.040;2022-12-18T13:28:14;-9244.03;;;-0.24
74043;BMP280;62384;53.600;10.040;2022-12-18T13:35:52;-9236.28;;;-0.54
74043;BMP280;62384;53.600;10.040;2022-12-18T13:40:57;-9235.75;;;-0.56
74043;BMP280;62384;53.600;10.040;2022-12-18T13:48:59;-9232.09;;;-0.70
74043;BMP280;62384;53.600;10.040;2022-12-18T13:51:26;-9231.56;;;-0.72
74043;BMP280;62384;53.600;10.040;2022-12-18T13:54:19;-9226.69;;;-0.90
74043;BMP280;62384;53.600;10.040;2022-12-18T13:56:47;-9228.00;;;-0.85
74043;BMP280;62384;53.600;10.040;2022-12-18T13:59:17;-9229.31;;;-0.80
74043;BMP280;62384;53.600;10.040;2022-12-18T14:01:59;-9227.09;;;-0.89
74043;BMP280;62384;53.600;10.040;2022-12-18T14:04:30;-9226.56;;;-0.91
74043;BMP280;62384;53.600;10.040;2022-12-18T14:07:14;-9228.00;;;-0.85
74043;BMP280;62384;53.600;10.040;2022-12-18T14:09:53;-9221.72;;;-1.10
74043;BMP280;62384;53.600;10.040;2022-12-18T14:12:26;-9224.22;;;-1.00
74043;BMP280;62384;53.600;10.040;2022-12-18T14:18:43;-9218.56;;;-1.22
74043;BMP280;62384;53.600;10.040;2022-12-18T14:20:44;-9214.88;;;-1.36
74043;BMP280;62384;53.600;10.040;2022-12-18T14:23:32;-9214.63;;;-1.37
74043;BMP280;62384;53.600;10.040;2022-12-18T14:25:59;-9213.84;;;-1.40
74043;BMP280;62384;53.600;10.040;2022-12-18T14:28:26;-9212.13;;;-1.46
74043;BMP280;62384;53.600;10.040;2022-12-18T14:30:53;-9212.78;;;-1.44
74043;BMP280;62384;53.600;10.040;2022-12-18T14:33:22;-9210.69;;;-1.52
74043;BMP280;62384;53.600;10.040;2022-12-18T14:36:04;-9212.38;;;-1.45
74043;BMP280;62384;53.600;10.040;2022-12-18T14:38:37;-9210.28;;;-1.54
74043;BMP280;62384;53.600;10.040;2022-12-18T14:41:14;-9207.94;;;-1.63
74043;BMP280;62384;53.600;10.040;2022-12-18T14:43:44;-9207.28;;;-1.65
74043;BMP280;62384;53.600;10.040;2022-12-18T14:46:49;-9206.63;;;-1.68
74043;BMP280;62384;53.600;10.040;2022-12-18T14:52:04;-9205.44;;;-1.72
74043;BMP280;62384;53.600;10.040;2022-12-18T14:54:31;-9204.66;;;-1.75
74043;BMP280;62384;53.600;10.040;2022-12-18T14:57:04;-9205.97;;;-1.70
74043;BMP280;62384;53.600;10.040;2022-12-18T14:59:31;-9198.50;;;-1.99
74043;BMP280;62384;53.600;10.040;2022-12-18T15:04:43;-9203.06;;;-1.81
74043;BMP280;62384;53.600;10.040;2022-12-18T15:07:21;-9205.97;;;-1.70
74043;BMP280;62384;53.600;10.040;2022-12-18T15:20:54;-9203.34;;;-1.80
74043;BMP280;62384;53.600;10.040;2022-12-18T15:23:24;-9198.88;;;-1.97
74043;BMP280;62384;53.600;10.040;2022-12-18T15:31:04;-9202.03;;;-1.85
74043;BMP280;62384;53.600;10.040;2022-12-18T15:33:39;-9201.50;;;-1.87
74043;BMP280;62384;53.600;10.040;2022-12-18T15:36:09;-9202.44;;;-1.84
74043;BMP280;62384;53.600;10.040;2022-12-18T15:38:35;-9201.63;;;-1.87
74043;BMP280;62384;53.600;10.040;2022-12-18T15:41:01;-9204.25;;;-1.77
74043;BMP280;62384;53.600;10.040;2022-12-18T15:43:32;-9201.25;;;-1.88
74043;BMP280;62384;53.600;10.040;2022-12-18T15:46:17;-9200.72;;;-1.90
74043;BMP280;62384;53.600;10.040;2022-12-18T15:49:07;-9205.03;;;-1.74
74043;BMP280;62384;53.600;10.040;2022-12-18T15:51:54;-9207.28;;;-1.65
74043;BMP280;62384;53.600;10.040;2022-12-18T15:54:21;-9205.19;;;-1.73
74043;BMP280;62384;53.600;10.040;2022-12-18T15:57:11;-9207.81;;;-1.63
74043;BMP280;62384;53.600;10.040;2022-12-18T15:59:49;-9205.97;;;-1.70
74043;BMP280;62384;53.600;10.040;2022-12-18T16:02:34;-9204.53;;;-1.76
74043;BMP280;62384;53.600;10.040;2022-12-18T16:04:59;-9204.00;;;-1.78
74043;BMP280;62384;53.600;10.040;2022-12-18T16:07:25;-9204.78;;;-1.75
74043;BMP280;62384;53.600;10.040;2022-12-18T16:09:50;-9202.69;;;-1.83